Time;durP1;ratioP1;P1;durP2;ratioP2;P2;SDS_P1;SDS_P2;PMS_P1;PMS_P2;Temp;Humidity;BMP_temperature;BMP_pressure;BME280_temperature;BME280_humidity;BME280_pressure;Samples;Min_cycle;Max_cycle;Signal;HPM_P1;HPM_P2
2023/05/17 00:00:43;;;;;;;10.90;6.38;;;;;;;;;;2040799;29;20043;-94
2023/05/17 00:01:44;;;;;;;11.00;7.43;;;;;;;;;;2040584;29;20023;-93
2023/05/17 00:02:44;;;;;;;9.15;5.97;;;;;;;;;;2040537;29;20491;-93
2023/05/17 00:03:44;;;;;;;9.88;6.55;;;;;;;;;;2040358;29;20031;-94
2023/05/17 00:04:45;;;;;;;8.13;6.03;;;;;;;;;;2048361;29;20458;-93
2023/05/17 00:05:45;;;;;;;9.60;5.78;;;;;;;;;;2040997;29;20544;-94
2023/05/17 00:06:46;;;;;;;11.23;6.22;;;;;;;;;;2041324;29;20090;-95
2023/05/17 00:07:47;;;;;;;9.98;6.57;;;;;;;;;;2041229;29;20054;-96
2023/05/17 00:08:48;;;;;;;10.40;6.53;;;;;;;;;;2041058;29;20118;-95
2023/05/17 00:09:48;;;;;;;10.15;6.40;;;;;;;;;;2041126;29;20443;-94
2023/05/17 00:10:49;;;;;;;11.38;6.38;;;;;;;;;;2049044;29;20015;-93
2023/05/17 00:11:49;;;;;;;11.73;7.10;;;;;;;;;;2049116;29;20023;-94
2023/05/17 00:12:49;;;;;;;13.07;6.38;;;;;;;;;;2049052;29;20035;-95
2023/05/17 00:13:50;;;;;;;10.98;6.95;;;;;;;;;;2041060;29;20023;-95
2023/05/17 00:14:52;;;;;;;9.40;5.97;;;;;;;;;;2048880;29;20467;-95
2023/05/17 00:15:52;;;;;;;9.43;6.30;;;;;;;;;;2048969;29;20054;-94
2023/05/17 00:16:53;;;;;;;10.05;6.35;;;;;;;;;;2041128;29;20027;-95
2023/05/17 00:17:54;;;;;;;7.82;5.57;;;;;;;;;;2042498;29;20023;-95
2023/05/17 00:18:54;;;;;;;9.35;6.32;;;;;;;;;;2048778;29;20096;-94
2023/05/17 00:19:55;;;;;;;12.45;6.90;;;;;;;;;;2040927;29;20105;-95
2023/05/17 00:20:56;;;;;;;9.23;6.30;;;;;;;;;;2041098;29;20096;-93
2023/05/17 00:21:56;;;;;;;10.18;6.63;;;;;;;;;;2048683;29;20131;-93
2023/05/17 00:22:56;;;;;;;9.13;5.75;;;;;;;;;;2048710;28;20023;-94
2023/05/17 00:23:57;;;;;;;8.60;6.45;;;;;;;;;;2040708;29;20051;-94
2023/05/17 00:24:57;;;;;;;11.82;6.47;;;;;;;;;;2048720;28;20062;-95
2023/05/17 00:25:58;;;;;;;10.75;6.65;;;;;;;;;;2048775;29;20027;-95
2023/05/17 00:26:58;;;;;;;11.93;6.80;;;;;;;;;;2048944;29;20023;-95
2023/05/17 00:27:58;;;;;;;12.75;6.45;;;;;;;;;;2048702;29;20055;-95
2023/05/17 00:28:59;;;;;;;10.48;6.57;;;;;;;;;;2048531;29;20094;-96
2023/05/17 00:29:59;;;;;;;9.70;6.13;;;;;;;;;;2048349;29;20109;-95
2023/05/17 00:32:12;;;;;;;8.52;5.70;;;;;;;;;;2232189;23;20427;-95
2023/05/17 00:33:12;;;;;;;11.35;5.78;;;;;;;;;;2048721;29;20027;-92
2023/05/17 00:34:13;;;;;;;10.93;6.32;;;;;;;;;;2040729;29;20027;-93
2023/05/17 00:35:13;;;;;;;8.15;5.90;;;;;;;;;;2048248;29;20031;-94
2023/05/17 00:36:14;;;;;;;10.68;6.72;;;;;;;;;;2048147;29;20078;-93
2023/05/17 00:37:14;;;;;;;9.07;6.40;;;;;;;;;;2040459;29;20068;-93
2023/05/17 00:38:15;;;;;;;9.95;6.35;;;;;;;;;;2040510;29;20088;-95
2023/05/17 00:39:15;;;;;;;11.43;6.45;;;;;;;;;;2044730;29;20027;-93
2023/05/17 00:40:15;;;;;;;12.93;6.60;;;;;;;;;;1699759;28;10235556;-94
2023/05/17 00:41:16;;;;;;;13.40;7.00;;;;;;;;;;2058581;28;20158;-94
2023/05/17 00:42:17;;;;;;;9.65;6.32;;;;;;;;;;2050750;28;20023;-93
2023/05/17 00:43:17;;;;;;;11.35;7.35;;;;;;;;;;2058678;28;20011;-93
2023/05/17 00:44:18;;;;;;;14.27;6.68;;;;;;;;;;2058210;29;20126;-95
2023/05/17 00:45:18;;;;;;;12.90;7.05;;;;;;;;;;2048660;29;20075;-93
2023/05/17 00:46:19;;;;;;;12.85;7.60;;;;;;;;;;2052875;29;20074;-92
2023/05/17 00:47:19;;;;;;;15.90;7.45;;;;;;;;;;2050214;28;20049;-94
2023/05/17 00:48:20;;;;;;;15.15;6.97;;;;;;;;;;2049471;28;20031;-94
2023/05/17 00:49:20;;;;;;;12.77;7.30;;;;;;;;;;2048953;29;20031;-93
2023/05/17 00:50:20;;;;;;;11.60;7.38;;;;;;;;;;2040543;29;20162;-92
2023/05/17 00:51:21;;;;;;;13.38;7.18;;;;;;;;;;2048905;29;20031;-93
2023/05/17 00:52:22;;;;;;;15.95;7.38;;;;;;;;;;2049009;29;20051;-94
2023/05/17 00:53:22;;;;;;;12.15;7.25;;;;;;;;;;2048465;29;20106;-94
2023/05/17 00:54:24;;;;;;;11.38;7.95;;;;;;;;;;2040414;29;20110;-93
2023/05/17 00:55:25;;;;;;;14.05;8.07;;;;;;;;;;2048196;29;20046;-94
2023/05/17 00:56:26;;;;;;;13.23;7.82;;;;;;;;;;2048363;29;20031;-94
2023/05/17 00:57:28;;;;;;;13.35;7.57;;;;;;;;;;2040371;29;20078;-94
2023/05/17 00:58:29;;;;;;;9.85;7.07;;;;;;;;;;2042600;29;20032;-94
2023/05/17 00:59:30;;;;;;;11.02;7.35;;;;;;;;;;2050413;28;20031;-93
2023/05/17 01:00:32;;;;;;;12.40;7.93;;;;;;;;;;2058490;28;20015;-95
2023/05/17 01:01:34;;;;;;;10.48;7.10;;;;;;;;;;2058192;28;20015;-94
2023/05/17 01:02:34;;;;;;;11.63;7.70;;;;;;;;;;2050400;29;20016;-93
2023/05/17 01:03:35;;;;;;;15.52;7.60;;;;;;;;;;2050156;28;20035;-93
2023/05/17 01:04:37;;;;;;;16.75;7.28;;;;;;;;;;2048158;29;20028;-94
2023/05/17 01:05:39;;;;;;;11.30;7.00;;;;;;;;;;2054947;29;20019;-93
2023/05/17 01:06:40;;;;;;;10.55;6.15;;;;;;;;;;2055385;29;20023;-93
2023/05/17 01:07:40;;;;;;;11.68;6.35;;;;;;;;;;2047920;29;20033;-93
2023/05/17 01:08:41;;;;;;;10.95;5.90;;;;;;;;;;1692456;28;10223264;-93
2023/05/17 01:09:42;;;;;;;11.68;6.05;;;;;;;;;;2050503;29;20118;-93
2023/05/17 01:11:00;;;;;;;15.13;6.43;;;;;;;;;;2042916;29;20122;-93
2023/05/17 01:12:00;;;;;;;11.48;6.40;;;;;;;;;;2047699;28;20024;-94
2023/05/17 01:13:09;;;;;;;9.57;5.95;;;;;;;;;;2042810;29;20054;-94
2023/05/17 01:14:51;;;;;;;9.55;6.82;;;;;;;;;;2050832;29;20023;-93
2023/05/17 01:16:15;;;;;;;;;;;;;;;;;;2016902;29;20560;-94
2023/05/17 01:17:27;;;;;;;13.43;6.18;;;;;;;;;;2014475;29;19912;-93
2023/05/17 01:18:47;;;;;;;13.25;5.70;;;;;;;;;;2033787;29;20496;-94
2023/05/17 01:20:09;;;;;;;12.30;6.25;;;;;;;;;;2045456;29;20158;-93
2023/05/17 01:21:28;;;;;;;11.90;6.30;;;;;;;;;;2045693;29;20499;-93
2023/05/17 01:22:43;;;;;;;11.10;6.43;;;;;;;;;;2045898;29;20039;-94
2023/05/17 01:24:09;;;;;;;11.43;6.15;;;;;;;;;;2051531;29;20512;-94
2023/05/17 01:25:23;;;;;;;8.65;5.47;;;;;;;;;;2049558;29;20082;-91
2023/05/17 01:26:45;;;;;;;9.73;6.20;;;;;;;;;;2047373;29;20023;-92
2023/05/17 01:27:48;;;;;;;11.80;5.95;;;;;;;;;;2051083;29;20027;-94
2023/05/17 01:28:52;;;;;;;10.13;6.22;;;;;;;;;;2050942;29;20031;-94
2023/05/17 01:29:55;;;;;;;13.90;6.28;;;;;;;;;;2050810;29;20483;-93
2023/05/17 01:30:58;;;;;;;10.20;6.30;;;;;;;;;;2046652;29;20023;-93
2023/05/17 01:32:01;;;;;;;8.98;5.72;;;;;;;;;;2058967;29;20078;-90
2023/05/17 01:33:03;;;;;;;9.13;5.40;;;;;;;;;;2054000;29;20057;-93
2023/05/17 01:34:07;;;;;;;10.38;5.38;;;;;;;;;;2051084;29;20026;-93
2023/05/17 01:35:11;;;;;;;7.90;5.13;;;;;;;;;;2051011;29;20023;-92
2023/05/17 01:36:11;;;;;;;13.45;6.20;;;;;;;;;;2050953;29;20027;-93
2023/05/17 01:37:11;;;;;;;12.06;6.03;;;;;;;;;;1699281;28;10091038;-93
2023/05/17 01:38:12;;;;;;;11.90;6.45;;;;;;;;;;2042901;29;20044;-93
2023/05/17 01:39:12;;;;;;;8.98;6.05;;;;;;;;;;2050918;29;20051;-93
2023/05/17 01:40:13;;;;;;;10.45;6.00;;;;;;;;;;2051210;29;20475;-94
2023/05/17 01:41:40;;;;;;;13.02;5.97;;;;;;;;;;2042977;29;20090;-93
2023/05/17 01:42:41;;;;;;;9.93;5.95;;;;;;;;;;2046800;29;20481;-93
2023/05/17 01:43:48;;;;;;;10.82;6.00;;;;;;;;;;2051066;28;20102;-94
2023/05/17 01:45:06;;;;;;;8.82;5.63;;;;;;;;;;2050833;29;20019;-93
2023/05/17 01:46:15;;;;;;;10.65;5.45;;;;;;;;;;2045564;29;20523;-94
2023/05/17 01:47:23;;;;;;;11.57;6.03;;;;;;;;;;2051265;29;20439;-95
2023/05/17 01:48:32;;;;;;;7.47;5.43;;;;;;;;;;2044355;29;20123;-96
2023/05/17 01:49:37;;;;;;;8.85;5.57;;;;;;;;;;2044252;29;20039;-93
2023/05/17 01:50:40;;;;;;;10.50;5.93;;;;;;;;;;2053889;28;20027;-94
2023/05/17 01:51:48;;;;;;;9.93;6.28;;;;;;;;;;2051584;28;20094;-94
2023/05/17 01:53:00;;;;;;;9.25;6.38;;;;;;;;;;2051040;29;20033;-92
2023/05/17 01:54:10;;;;;;;9.48;6.18;;;;;;;;;;2050829;29;20071;-93
2023/05/17 01:55:33;;;;;;;10.63;6.55;;;;;;;;;;2043977;29;20126;-93
2023/05/17 01:56:35;;;;;;;12.88;6.75;;;;;;;;;;2045914;29;20031;-92
2023/05/17 01:57:37;;;;;;;8.02;6.07;;;;;;;;;;2051014;29;20085;-93
2023/05/17 01:58:47;;;;;;;16.65;7.25;;;;;;;;;;2050853;29;20027;-93
2023/05/17 01:59:49;;;;;;;10.77;6.82;;;;;;;;;;2051290;29;20023;-94
2023/05/17 02:00:52;;;;;;;10.85;7.03;;;;;;;;;;2051015;29;20125;-93
2023/05/17 02:01:57;;;;;;;10.93;7.22;;;;;;;;;;2043264;29;20488;-93
2023/05/17 02:02:58;;;;;;;11.63;6.93;;;;;;;;;;2051069;28;20025;-93
2023/05/17 02:03:58;;;;;;;10.90;7.32;;;;;;;;;;2042855;29;20039;-94
2023/05/17 02:04:59;;;;;;;13.35;7.05;;;;;;;;;;2051337;29;20039;-93
2023/05/17 02:05:59;;;;;;;10.82;7.38;;;;;;;;;;2043241;29;20175;-93
2023/05/17 02:07:01;;;;;;;14.93;7.50;;;;;;;;;;1690794;29;10333056;-92
2023/05/17 02:08:01;;;;;;;11.05;7.40;;;;;;;;;;2043044;29;20421;-92
2023/05/17 02:09:02;;;;;;;11.95;7.45;;;;;;;;;;2043229;29;20047;-94
2023/05/17 02:10:02;;;;;;;11.68;7.72;;;;;;;;;;2044315;29;20124;-94
2023/05/17 02:11:03;;;;;;;14.43;7.90;;;;;;;;;;2051474;29;20029;-94
2023/05/17 02:12:03;;;;;;;12.35;7.57;;;;;;;;;;2051445;29;20022;-93
2023/05/17 02:13:04;;;;;;;12.82;7.95;;;;;;;;;;2051377;29;20538;-92
2023/05/17 02:14:05;;;;;;;13.05;8.02;;;;;;;;;;2051211;29;20504;-93
2023/05/17 02:15:07;;;;;;;14.10;8.52;;;;;;;;;;2051020;29;20046;-93
2023/05/17 02:16:07;;;;;;;17.02;9.25;;;;;;;;;;2043206;29;20038;-95
2023/05/17 02:17:08;;;;;;;19.80;10.35;;;;;;;;;;2042796;29;20082;-94
2023/05/17 02:18:10;;;;;;;15.75;9.43;;;;;;;;;;2050401;29;20528;-93
2023/05/17 02:19:11;;;;;;;13.45;9.85;;;;;;;;;;2051041;29;20038;-93
2023/05/17 02:20:12;;;;;;;18.90;9.98;;;;;;;;;;2042545;29;20028;-93
2023/05/17 02:21:12;;;;;;;14.13;10.35;;;;;;;;;;2041039;29;20037;-93
2023/05/17 02:22:13;;;;;;;22.50;10.40;;;;;;;;;;2045290;29;20068;-94
2023/05/17 02:23:14;;;;;;;15.68;9.60;;;;;;;;;;2050194;28;20039;-93
2023/05/17 02:24:14;;;;;;;20.23;9.73;;;;;;;;;;2047843;28;20023;-93
2023/05/17 02:25:16;;;;;;;16.67;9.90;;;;;;;;;;2050451;29;20015;-94
2023/05/17 02:26:16;;;;;;;17.98;9.50;;;;;;;;;;2042038;29;20098;-94
2023/05/17 02:27:16;;;;;;;16.85;9.95;;;;;;;;;;2034306;29;20032;-96
2023/05/17 02:28:17;;;;;;;16.27;9.63;;;;;;;;;;2041917;29;20038;-93
2023/05/17 02:29:17;;;;;;;13.48;9.68;;;;;;;;;;2049653;29;20079;-95
2023/05/17 02:30:20;;;;;;;18.50;10.43;;;;;;;;;;2041571;29;20546;-95
2023/05/17 02:31:21;;;;;;;17.73;9.52;;;;;;;;;;2049800;29;20145;-95
2023/05/17 02:32:22;;;;;;;17.13;10.18;;;;;;;;;;2049570;29;20027;-94
2023/05/17 02:33:25;;;;;;;16.45;10.25;;;;;;;;;;2050072;29;20078;-94
2023/05/17 02:34:25;;;;;;;16.02;10.98;;;;;;;;;;2042415;29;20027;-93
2023/05/17 02:35:26;;;;;;;20.67;10.73;;;;;;;;;;2041793;29;20087;-95
2023/05/17 02:36:26;;;;;;;15.40;9.88;;;;;;;;;;2049936;29;20054;-94
2023/05/17 02:37:27;;;;;;;15.25;10.32;;;;;;;;;;2049255;29;20495;-93
2023/05/17 02:38:30;;;;;;;14.10;9.93;;;;;;;;;;2042074;29;20420;-95
2023/05/17 02:39:32;;;;;;;16.80;10.50;;;;;;;;;;2050086;29;20085;-94
2023/05/17 02:40:32;;;;;;;19.95;11.27;;;;;;;;;;2049675;29;20023;-94
2023/05/17 02:41:35;;;;;;;20.63;11.02;;;;;;;;;;2041793;29;20114;-96
2023/05/17 02:42:35;;;;;;;17.27;11.43;;;;;;;;;;2041634;29;20452;-93
2023/05/17 02:43:36;;;;;;;19.90;11.85;;;;;;;;;;2041628;29;20044;-95
2023/05/17 02:44:36;;;;;;;19.65;10.98;;;;;;;;;;2041524;29;20138;-93
2023/05/17 02:45:39;;;;;;;21.02;11.75;;;;;;;;;;2049831;29;20149;-92
2023/05/17 02:46:39;;;;;;;19.77;11.73;;;;;;;;;;2041817;29;20152;-93
2023/05/17 02:47:41;;;;;;;20.60;12.15;;;;;;;;;;2033619;29;20063;-92
2023/05/17 02:48:42;;;;;;;18.00;12.60;;;;;;;;;;2033591;29;20072;-93
2023/05/17 02:49:42;;;;;;;18.67;12.77;;;;;;;;;;2041377;29;20130;-94
2023/05/17 02:50:42;;;;;;;19.90;12.35;;;;;;;;;;2049467;29;20027;-93
2023/05/17 02:51:43;;;;;;;21.58;12.57;;;;;;;;;;2041644;29;20042;-93
2023/05/17 02:52:43;;;;;;;22.02;13.02;;;;;;;;;;2041584;29;20111;-94
2023/05/17 02:53:44;;;;;;;22.95;13.10;;;;;;;;;;2041404;29;20426;-93
2023/05/17 02:54:44;;;;;;;22.45;13.18;;;;;;;;;;2041435;29;20558;-92
2023/05/17 02:55:44;;;;;;;21.30;13.05;;;;;;;;;;2041437;29;20079;-93
2023/05/17 02:56:45;;;;;;;24.02;13.35;;;;;;;;;;2041423;29;20027;-94
2023/05/17 02:57:45;;;;;;;24.40;13.20;;;;;;;;;;2041419;29;20035;-93
2023/05/17 02:58:46;;;;;;;19.40;12.35;;;;;;;;;;2041430;29;20111;-93
2023/05/17 02:59:46;;;;;;;20.92;12.75;;;;;;;;;;2049376;29;20031;-94
2023/05/17 03:00:47;;;;;;;19.92;12.77;;;;;;;;;;2041403;29;20035;-93
2023/05/17 03:01:48;;;;;;;20.70;13.18;;;;;;;;;;2041176;29;20027;-93
2023/05/17 03:02:49;;;;;;;18.80;12.82;;;;;;;;;;2041250;29;20394;-93
2023/05/17 03:03:49;;;;;;;20.27;13.07;;;;;;;;;;2041329;29;20034;-93
2023/05/17 03:04:50;;;;;;;25.63;13.85;;;;;;;;;;2041324;29;20468;-93
2023/05/17 03:05:50;;;;;;;21.85;13.15;;;;;;;;;;2049155;29;20027;-94
2023/05/17 03:06:51;;;;;;;22.08;13.90;;;;;;;;;;2048755;29;20058;-93
2023/05/17 03:07:51;;;;;;;18.48;12.57;;;;;;;;;;2041021;29;20043;-94
2023/05/17 03:08:51;;;;;;;24.35;12.98;;;;;;;;;;2048992;29;20488;-92
2023/05/17 03:09:52;;;;;;;20.20;12.10;;;;;;;;;;2049855;29;20050;-93
2023/05/17 03:10:52;;;;;;;24.02;14.27;;;;;;;;;;2059124;28;20079;-93
2023/05/17 03:11:53;;;;;;;22.58;12.45;;;;;;;;;;2058545;28;20015;-93
2023/05/17 03:12:55;;;;;;;24.08;13.77;;;;;;;;;;2051416;28;20020;-92
2023/05/17 03:13:55;;;;;;;23.13;14.07;;;;;;;;;;2051506;28;20015;-93
2023/05/17 03:14:55;;;;;;;21.70;12.88;;;;;;;;;;2051198;28;20020;-94
2023/05/17 03:15:56;;;;;;;20.73;12.73;;;;;;;;;;2046645;28;20130;-93
2023/05/17 03:16:56;;;;;;;21.63;12.88;;;;;;;;;;2043027;29;20038;-92
2023/05/17 03:17:57;;;;;;;24.20;14.10;;;;;;;;;;2050285;29;20427;-91
2023/05/17 03:18:57;;;;;;;18.83;11.77;;;;;;;;;;2042360;29;20496;-92
2023/05/17 03:19:57;;;;;;;18.30;11.68;;;;;;;;;;2049124;29;20039;-93
2023/05/17 03:20:58;;;;;;;19.98;11.68;;;;;;;;;;1702045;29;10147836;-93
2023/05/17 03:21:58;;;;;;;18.98;11.57;;;;;;;;;;2041239;29;20098;-94
2023/05/17 03:23:01;;;;;;;25.70;12.75;;;;;;;;;;2049181;29;20023;-94
2023/05/17 03:24:02;;;;;;;17.50;11.90;;;;;;;;;;2041402;29;20019;-92
2023/05/17 03:25:04;;;;;;;18.30;11.50;;;;;;;;;;2041600;29;20015;-94
2023/05/17 03:26:04;;;;;;;19.38;12.43;;;;;;;;;;2041330;29;20027;-95
2023/05/17 03:27:05;;;;;;;18.70;12.50;;;;;;;;;;2041470;29;20012;-95
2023/05/17 03:28:05;;;;;;;21.73;12.95;;;;;;;;;;2041451;29;20052;-95
2023/05/17 03:29:06;;;;;;;22.52;12.75;;;;;;;;;;2045590;29;20042;-95
2023/05/17 03:30:07;;;;;;;17.83;11.95;;;;;;;;;;2050733;28;20020;-94
2023/05/17 03:31:08;;;;;;;18.73;12.13;;;;;;;;;;2051205;28;20095;-95
2023/05/17 03:32:09;;;;;;;17.45;12.27;;;;;;;;;;2058731;28;20031;-94
2023/05/17 03:33:10;;;;;;;20.70;12.35;;;;;;;;;;2051056;28;20107;-95
2023/05/17 03:34:10;;;;;;;15.85;12.18;;;;;;;;;;2048705;29;20570;-94
2023/05/17 03:35:11;;;;;;;19.83;11.80;;;;;;;;;;2049147;29;20503;-94
2023/05/17 03:36:14;;;;;;;18.90;11.27;;;;;;;;;;2041232;29;20453;-93
2023/05/17 03:37:14;;;;;;;19.92;12.40;;;;;;;;;;2049654;29;20058;-93
2023/05/17 03:38:15;;;;;;;18.10;11.45;;;;;;;;;;2048917;29;20126;-94
2023/05/17 03:39:16;;;;;;;19.65;11.90;;;;;;;;;;2049019;29;20027;-93
2023/05/17 03:40:18;;;;;;;18.13;11.80;;;;;;;;;;2048815;29;20125;-94
2023/05/17 03:41:19;;;;;;;17.00;11.95;;;;;;;;;;2048755;29;20491;-94
2023/05/17 03:42:20;;;;;;;18.35;11.77;;;;;;;;;;2048725;29;20027;-95
2023/05/17 03:43:20;;;;;;;19.52;10.18;;;;;;;;;;2049006;29;20408;-94
2023/05/17 03:44:20;;;;;;;17.67;11.43;;;;;;;;;;2048984;29;20035;-93
2023/05/17 03:45:21;;;;;;;18.65;11.38;;;;;;;;;;2040776;29;20059;-93
2023/05/17 03:46:21;;;;;;;18.98;12.30;;;;;;;;;;2040653;29;20139;-93
2023/05/17 03:47:22;;;;;;;17.30;11.45;;;;;;;;;;2048744;29;20163;-93
2023/05/17 03:48:23;;;;;;;17.50;11.43;;;;;;;;;;2048875;29;20027;-93
2023/05/17 03:49:23;;;;;;;20.52;11.68;;;;;;;;;;2041135;29;20027;-94
2023/05/17 03:50:24;;;;;;;20.50;11.43;;;;;;;;;;2048909;29;20110;-93
2023/05/17 03:51:24;;;;;;;18.00;11.70;;;;;;;;;;2048592;29;20058;-93
2023/05/17 03:52:25;;;;;;;18.80;12.13;;;;;;;;;;2040697;29;20028;-94
2023/05/17 03:53:25;;;;;;;17.55;11.32;;;;;;;;;;2040725;29;20031;-94
2023/05/17 03:54:26;;;;;;;18.25;11.10;;;;;;;;;;2040682;29;20123;-94
2023/05/17 03:55:26;;;;;;;19.00;11.00;;;;;;;;;;2040649;29;20032;-93
2023/05/17 03:56:30;;;;;;;20.92;11.50;;;;;;;;;;2040789;29;20042;-93
2023/05/17 03:57:30;;;;;;;22.27;12.43;;;;;;;;;;2041291;29;20031;-93
2023/05/17 03:58:33;;;;;;;20.25;11.80;;;;;;;;;;2048591;29;20031;-92
2023/05/17 03:59:33;;;;;;;20.80;11.77;;;;;;;;;;2048627;29;20035;-94
2023/05/17 04:00:35;;;;;;;16.42;11.52;;;;;;;;;;2040550;29;20055;-93
2023/05/17 04:01:36;;;;;;;20.83;11.43;;;;;;;;;;2040727;29;20487;-93
2023/05/17 04:02:37;;;;;;;20.40;12.27;;;;;;;;;;2048549;29;20046;-93
2023/05/17 04:03:38;;;;;;;15.85;11.20;;;;;;;;;;2040331;29;20131;-92
2023/05/17 04:04:39;;;;;;;10.90;8.88;;;;;;;;;;1346437;29;10397535;-94
2023/05/17 04:05:40;;;;;;;17.17;10.98;;;;;;;;;;2048777;29;20179;-92
2023/05/17 04:06:40;;;;;;;20.42;12.15;;;;;;;;;;2050866;28;20015;-94
2023/05/17 04:07:41;;;;;;;14.98;11.48;;;;;;;;;;2049239;29;20035;-92
2023/05/17 04:08:41;;;;;;;19.40;11.18;;;;;;;;;;2048906;29;20047;-93
2023/05/17 04:09:42;;;;;;;17.52;10.95;;;;;;;;;;2040795;29;20094;-93
2023/05/17 04:10:42;;;;;;;18.95;12.45;;;;;;;;;;2040789;29;20064;-93
2023/05/17 04:11:42;;;;;;;19.25;11.35;;;;;;;;;;2040939;29;20107;-92
2023/05/17 04:12:43;;;;;;;17.90;10.95;;;;;;;;;;2048780;29;20035;-95
2023/05/17 04:13:43;;;;;;;21.55;11.73;;;;;;;;;;2040600;29;20075;-94
2023/05/17 04:14:44;;;;;;;16.48;11.73;;;;;;;;;;2040430;29;20059;-93
2023/05/17 04:15:44;;;;;;;19.63;10.90;;;;;;;;;;2040507;29;20030;-93
2023/05/17 04:16:45;;;;;;;19.13;11.57;;;;;;;;;;2040982;29;20036;-93
2023/05/17 04:17:45;;;;;;;19.98;11.55;;;;;;;;;;2040690;29;20047;-92
2023/05/17 04:18:46;;;;;;;18.20;11.25;;;;;;;;;;2048977;29;20031;-95
2023/05/17 04:19:46;;;;;;;17.05;10.60;;;;;;;;;;2049345;28;20499;-93
2023/05/17 04:20:47;;;;;;;20.60;12.00;;;;;;;;;;2048656;29;20023;-94
2023/05/17 04:21:47;;;;;;;17.20;11.27;;;;;;;;;;2048379;29;20031;-93
2023/05/17 04:22:48;;;;;;;16.60;11.20;;;;;;;;;;2048464;29;20027;-93
2023/05/17 04:23:48;;;;;;;16.33;10.90;;;;;;;;;;2048476;29;20054;-94
2023/05/17 04:24:49;;;;;;;16.35;11.35;;;;;;;;;;2048374;29;20027;-93
2023/05/17 04:25:49;;;;;;;15.80;11.07;;;;;;;;;;2048743;28;20078;-94
2023/05/17 04:26:50;;;;;;;17.73;10.68;;;;;;;;;;2048774;28;20023;-95
2023/05/17 04:27:50;;;;;;;18.80;11.25;;;;;;;;;;2040474;29;20554;-95
2023/05/17 04:28:51;;;;;;;17.48;11.35;;;;;;;;;;2032874;29;20050;-94
2023/05/17 04:29:51;;;;;;;17.10;11.02;;;;;;;;;;2048398;29;20023;-92
2023/05/17 04:30:52;;;;;;;14.63;11.00;;;;;;;;;;2048529;29;20023;-95
2023/05/17 04:31:52;;;;;;;16.42;10.40;;;;;;;;;;2040569;29;20051;-94
2023/05/17 04:32:53;;;;;;;14.25;10.93;;;;;;;;;;2040515;29;20484;-95
2023/05/17 04:33:53;;;;;;;16.20;11.15;;;;;;;;;;2040011;29;20488;-93
2023/05/17 04:34:55;;;;;;;17.40;10.35;;;;;;;;;;2047997;29;20032;-94
2023/05/17 04:35:56;;;;;;;20.30;10.77;;;;;;;;;;2048187;29;20491;-94
2023/05/17 04:36:56;;;;;;;16.45;10.70;;;;;;;;;;2040252;29;20107;-94
2023/05/17 04:37:57;;;;;;;18.42;11.13;;;;;;;;;;2040252;29;20047;-94
2023/05/17 04:38:57;;;;;;;16.67;11.48;;;;;;;;;;2040591;29;20019;-95
2023/05/17 04:39:58;;;;;;;17.48;10.73;;;;;;;;;;2043517;28;20397;-93
2023/05/17 04:41:03;;;;;;;16.23;10.57;;;;;;;;;;2047984;29;20427;-92
2023/05/17 04:42:03;;;;;;;14.98;10.18;;;;;;;;;;2040629;29;20063;-93
2023/05/17 04:43:04;;;;;;;15.35;10.52;;;;;;;;;;2040403;29;20078;-93
2023/05/17 04:44:06;;;;;;;14.85;10.48;;;;;;;;;;2048018;28;20025;-94
2023/05/17 04:45:07;;;;;;;16.35;10.65;;;;;;;;;;2048474;29;20113;-94
2023/05/17 04:46:07;;;;;;;17.75;10.65;;;;;;;;;;2048495;28;20031;-93
2023/05/17 04:47:08;;;;;;;16.98;9.98;;;;;;;;;;2047928;29;20027;-94
2023/05/17 04:48:08;;;;;;;16.17;9.98;;;;;;;;;;2040097;29;20495;-93
2023/05/17 04:49:09;;;;;;;16.50;10.02;;;;;;;;;;1695969;28;10299505;-94
2023/05/17 04:50:10;;;;;;;14.80;9.73;;;;;;;;;;2047923;29;20030;-93
2023/05/17 04:51:10;;;;;;;15.20;9.15;;;;;;;;;;2047861;29;20026;-94
2023/05/17 04:52:11;;;;;;;13.43;10.10;;;;;;;;;;2039936;29;20099;-93
2023/05/17 04:53:11;;;;;;;13.27;9.48;;;;;;;;;;2039481;29;20159;-93
2023/05/17 04:54:12;;;;;;;14.95;9.63;;;;;;;;;;2047729;29;20344;-94
2023/05/17 04:55:12;;;;;;;14.52;10.05;;;;;;;;;;2047972;29;20038;-93
2023/05/17 04:56:13;;;;;;;16.27;10.07;;;;;;;;;;2049161;29;20114;-92
2023/05/17 04:57:13;;;;;;;19.80;10.00;;;;;;;;;;2054598;28;20027;-91
2023/05/17 04:58:14;;;;;;;16.35;10.70;;;;;;;;;;2057214;28;20059;-93
2023/05/17 04:59:14;;;;;;;14.90;10.10;;;;;;;;;;2047952;29;20027;-93
2023/05/17 05:00:15;;;;;;;14.13;9.70;;;;;;;;;;2040470;29;20031;-93
2023/05/17 05:01:16;;;;;;;15.43;8.50;;;;;;;;;;1684664;29;10476980;-92
2023/05/17 05:02:16;;;;;;;15.70;9.73;;;;;;;;;;2048711;29;20028;-93
2023/05/17 05:03:18;;;;;;;15.68;9.75;;;;;;;;;;2042198;29;20115;-94
2023/05/17 05:04:18;;;;;;;13.50;10.10;;;;;;;;;;2049985;28;20106;-93
2023/05/17 05:05:19;;;;;;;13.43;9.35;;;;;;;;;;2048755;29;20181;-92
2023/05/17 05:06:21;;;;;;;16.30;9.18;;;;;;;;;;2040432;29;20532;-92
2023/05/17 05:07:21;;;;;;;13.13;9.20;;;;;;;;;;2034666;29;20460;-93
2023/05/17 05:08:22;;;;;;;14.70;9.48;;;;;;;;;;2041503;29;20035;-91
2023/05/17 05:09:22;;;;;;;15.98;10.27;;;;;;;;;;2050886;29;20494;-91
2023/05/17 05:10:24;;;;;;;15.43;10.77;;;;;;;;;;2043914;29;20396;-91
2023/05/17 05:11:24;;;;;;;17.42;11.80;;;;;;;;;;2050874;29;20428;-94
2023/05/17 05:12:25;;;;;;;16.92;10.43;;;;;;;;;;2048269;29;20051;-92
2023/05/17 05:13:26;;;;;;;17.65;10.10;;;;;;;;;;2047487;29;20488;-92
2023/05/17 05:14:26;;;;;;;17.95;9.32;;;;;;;;;;2048625;28;20169;-93
2023/05/17 05:15:27;;;;;;;16.25;9.63;;;;;;;;;;2048343;29;20570;-93
2023/05/17 05:16:28;;;;;;;16.02;10.15;;;;;;;;;;2045322;29;20130;-93
2023/05/17 05:17:29;;;;;;;14.75;9.88;;;;;;;;;;2048786;29;20038;-93
2023/05/17 05:18:30;;;;;;;14.13;9.15;;;;;;;;;;2040928;29;20106;-92
2023/05/17 05:19:30;;;;;;;13.32;9.15;;;;;;;;;;2048468;29;20035;-93
2023/05/17 05:20:31;;;;;;;12.23;9.45;;;;;;;;;;2040184;29;20492;-93
2023/05/17 05:21:32;;;;;;;12.65;8.68;;;;;;;;;;2040884;29;20361;-93
2023/05/17 05:22:32;;;;;;;13.90;8.73;;;;;;;;;;2040662;29;20023;-93
2023/05/17 05:23:33;;;;;;;15.90;9.10;;;;;;;;;;2048608;29;20030;-94
2023/05/17 05:24:34;;;;;;;16.50;8.90;;;;;;;;;;2048201;29;20130;-94
2023/05/17 05:25:36;;;;;;;16.13;9.30;;;;;;;;;;2048639;29;20102;-93
2023/05/17 05:26:37;;;;;;;14.85;8.85;;;;;;;;;;2048245;29;20578;-92
2023/05/17 05:27:37;;;;;;;18.27;9.00;;;;;;;;;;2040384;29;20035;-93
2023/05/17 05:28:38;;;;;;;13.48;8.27;;;;;;;;;;2048494;29;20032;-93
2023/05/17 05:29:38;;;;;;;13.85;9.18;;;;;;;;;;2042672;28;20123;-94
2023/05/17 05:30:38;;;;;;;11.90;8.20;;;;;;;;;;2041935;29;20028;-94
2023/05/17 05:31:39;;;;;;;13.25;8.60;;;;;;;;;;2048483;29;20035;-93
2023/05/17 05:32:39;;;;;;;12.70;8.65;;;;;;;;;;2040333;29;20035;-94
2023/05/17 05:33:40;;;;;;;14.43;9.23;;;;;;;;;;2032866;29;20119;-93
2023/05/17 05:34:43;;;;;;;14.57;9.10;;;;;;;;;;2032863;29;20043;-95
2023/05/17 05:35:44;;;;;;;14.48;9.32;;;;;;;;;;1691750;29;10271570;-95
2023/05/17 05:36:45;;;;;;;15.88;9.98;;;;;;;;;;2040713;29;20147;-93
2023/05/17 05:37:45;;;;;;;13.63;9.10;;;;;;;;;;2048832;29;20098;-94
2023/05/17 05:38:47;;;;;;;14.48;9.00;;;;;;;;;;2040586;29;20032;-92
2023/05/17 05:39:49;;;;;;;18.05;9.20;;;;;;;;;;2042944;28;20024;-94
2023/05/17 05:40:49;;;;;;;15.77;10.52;;;;;;;;;;2058286;28;20027;-94
2023/05/17 05:41:51;;;;;;;19.13;9.93;;;;;;;;;;2058383;28;20086;-94
2023/05/17 05:42:52;;;;;;;14.63;10.43;;;;;;;;;;2050563;28;20004;-93
2023/05/17 05:43:53;;;;;;;13.48;9.18;;;;;;;;;;2050516;28;20119;-96
2023/05/17 05:44:54;;;;;;;17.83;10.13;;;;;;;;;;2058414;28;20058;-94
2023/05/17 05:45:54;;;;;;;15.18;11.00;;;;;;;;;;2052855;28;20019;-95
2023/05/17 05:46:55;;;;;;;15.80;9.45;;;;;;;;;;2049917;29;20455;-96
2023/05/17 05:47:55;;;;;;;14.35;10.00;;;;;;;;;;2052658;29;20122;-92
2023/05/17 05:48:56;;;;;;;17.25;10.57;;;;;;;;;;2055370;28;20030;-92
2023/05/17 05:49:56;;;;;;;20.77;11.23;;;;;;;;;;2050929;29;20673;-93
2023/05/17 05:51:05;;;;;;;18.35;11.10;;;;;;;;;;2048963;28;20027;-94
2023/05/17 05:52:09;;;;;;;19.25;11.63;;;;;;;;;;2048249;29;20016;-94
2023/05/17 05:53:11;;;;;;;16.75;11.57;;;;;;;;;;2040722;29;20114;-93
2023/05/17 05:54:33;;;;;;;20.20;11.63;;;;;;;;;;2040461;29;20504;-94
2023/05/17 05:55:35;;;;;;;17.75;11.85;;;;;;;;;;2048463;28;20123;-95
2023/05/17 05:56:36;;;;;;;19.70;12.82;;;;;;;;;;2049815;29;20103;-93
2023/05/17 05:57:36;;;;;;;22.40;12.20;;;;;;;;;;2042903;29;20055;-93
2023/05/17 05:58:37;;;;;;;21.25;11.80;;;;;;;;;;2054821;29;20022;-94
2023/05/17 05:59:37;;;;;;;16.33;11.43;;;;;;;;;;2059893;28;20094;-91
2023/05/17 06:00:37;;;;;;;23.70;13.02;;;;;;;;;;2051537;28;20110;-93
2023/05/17 06:01:43;;;;;;;18.58;12.55;;;;;;;;;;2058502;28;20129;-92
2023/05/17 06:02:44;;;;;;;20.17;12.50;;;;;;;;;;2062110;28;20030;-92
2023/05/17 06:03:44;;;;;;;16.33;11.63;;;;;;;;;;2057337;28;20511;-92
2023/05/17 06:04:50;;;;;;;19.77;12.38;;;;;;;;;;2048858;29;20522;-92